createdAt,value
2023-03-03T00:00:35.204Z,28.83
2023-03-03T00:03:09.397Z,36.40
2023-03-03T00:05:38.396Z,33.40
2023-03-03T00:08:08.115Z,30.83
2023-03-03T00:10:36.409Z,31.47
2023-03-03T00:13:04.894Z,29.80
2023-03-03T00:15:33.142Z,29.70
2023-03-03T00:18:01.694Z,31.87
2023-03-03T00:20:37.872Z,30.80
2023-03-03T00:23:23.720Z,27.47
2023-03-03T00:25:54.637Z,29.57
2023-03-03T00:28:31.079Z,27.30
2023-03-03T00:31:02.031Z,21.67
2023-03-03T00:33:34.639Z,25.10
2023-03-03T00:36:28.602Z,24.37
2023-03-03T00:39:18.634Z,27.07
2023-03-03T00:41:46.896Z,25.50
2023-03-03T00:44:41.592Z,25.00
2023-03-03T00:47:32.748Z,23.07
2023-03-03T00:50:32.521Z,21.50
2023-03-03T00:53:05.603Z,25.53
2023-03-03T00:55:36.877Z,26.00
2023-03-03T00:58:05.794Z,23.60
2023-03-03T01:00:34.472Z,24.67
2023-03-03T01:03:07.156Z,22.87
2023-03-03T01:05:36.061Z,23.47
2023-03-03T01:08:04.945Z,21.83
2023-03-03T01:10:40.267Z,22.73
2023-03-03T01:13:09.470Z,22.47
2023-03-03T01:15:39.048Z,22.37
2023-03-03T01:18:08.677Z,31.07
2023-03-03T01:20:36.847Z,43.10
2023-03-03T01:23:05.258Z,30.17
2023-03-03T01:25:35.138Z,21.87
2023-03-03T01:28:03.526Z,22.97
2023-03-03T01:30:32.412Z,21.50
2023-03-03T01:33:00.561Z,24.40
2023-03-03T01:35:29.903Z,20.57
2023-03-03T01:37:59.178Z,22.23
2023-03-03T01:40:31.034Z,22.33
2023-03-03T01:43:02.865Z,23.07
2023-03-03T01:45:39.235Z,21.23
2023-03-03T01:48:15.137Z,20.83
2023-03-03T01:50:51.161Z,18.83
2023-03-03T01:53:24.015Z,18.87
2023-03-03T01:55:54.975Z,20.03
2023-03-03T01:58:31.247Z,30.07
2023-03-03T02:01:04.785Z,17.27
2023-03-03T02:03:34.907Z,21.20
2023-03-03T02:06:09.673Z,20.13
2023-03-03T02:08:47.178Z,20.30
2023-03-03T02:11:16.130Z,22.83
2023-03-03T02:13:45.641Z,27.00
2023-03-03T02:16:14.158Z,20.53
2023-03-03T02:18:42.637Z,18.97
2023-03-03T02:21:15.314Z,20.90
2023-03-03T02:23:54.314Z,23.57
2023-03-03T02:26:28.078Z,17.40
2023-03-03T02:28:56.260Z,20.53
2023-03-03T02:31:27.597Z,22.07
2023-03-03T02:33:56.770Z,19.40
2023-03-03T02:36:29.524Z,18.10
2023-03-03T02:39:06.642Z,21.47
2023-03-03T02:41:44.621Z,15.33
2023-03-03T02:44:15.991Z,13.97
2023-03-03T02:46:46.297Z,12.77
2023-03-03T02:49:17.590Z,18.93
2023-03-03T02:51:46.404Z,13.43
2023-03-03T02:54:18.020Z,13.10
2023-03-03T02:56:48.104Z,11.10
2023-03-03T02:59:16.876Z,22.13
2023-03-03T03:01:46.060Z,16.27
2023-03-03T03:04:17.537Z,14.47
2023-03-03T03:06:46.470Z,12.90
2023-03-03T03:09:16.651Z,14.20
2023-03-03T03:11:45.406Z,13.87
2023-03-03T03:14:15.900Z,13.93
2023-03-03T03:16:44.191Z,12.77
2023-03-03T03:19:12.631Z,12.13
2023-03-03T03:21:40.871Z,14.47
2023-03-03T03:24:09.434Z,13.67
2023-03-03T03:26:37.591Z,16.80
2023-03-03T03:29:06.190Z,17.30
2023-03-03T03:31:36.473Z,12.27
2023-03-03T03:34:04.584Z,11.57
2023-03-03T03:36:32.699Z,14.60
2023-03-03T03:39:02.766Z,13.50
2023-03-03T03:41:30.908Z,12.80
2023-03-03T03:43:59.004Z,12.40
2023-03-03T03:46:27.170Z,11.03
2023-03-03T03:48:56.598Z,10.10
2023-03-03T03:51:24.690Z,10.33
2023-03-03T03:53:52.874Z,8.93
2023-03-03T03:56:21.004Z,10.10
2023-03-03T03:58:49.130Z,10.33
2023-03-03T04:01:17.515Z,10.33
2023-03-03T04:03:45.610Z,9.17
2023-03-03T04:06:15.097Z,11.80
2023-03-03T04:08:43.282Z,10.97
2023-03-03T04:11:11.524Z,12.63
2023-03-03T04:13:39.661Z,10.40
2023-03-03T04:16:08.182Z,10.03
2023-03-03T04:18:36.342Z,10.27
2023-03-03T04:21:04.695Z,10.17
2023-03-03T04:23:34.220Z,8.83
2023-03-03T04:26:02.364Z,10.53
2023-03-03T04:28:30.518Z,10.23
2023-03-03T04:30:58.773Z,9.50
2023-03-03T04:33:27.229Z,10.17
2023-03-03T04:35:55.405Z,11.60
2023-03-03T04:38:23.564Z,11.00
2023-03-03T04:40:53.115Z,10.07
2023-03-03T04:43:21.598Z,9.77
2023-03-03T04:45:50.016Z,9.57
2023-03-03T04:48:18.133Z,8.60
2023-03-03T04:50:46.581Z,9.50
2023-03-03T04:53:14.709Z,10.00
2023-03-03T04:55:43.178Z,9.33
2023-03-03T04:58:12.803Z,10.37
2023-03-03T05:00:40.931Z,8.83
2023-03-03T05:03:11.536Z,9.70
2023-03-03T05:05:39.686Z,8.43
2023-03-03T05:08:08.206Z,7.97
2023-03-03T05:10:36.862Z,8.80
2023-03-03T05:13:05.952Z,9.27
2023-03-03T05:15:35.466Z,8.70
2023-03-03T05:18:03.747Z,8.93
2023-03-03T05:20:31.850Z,9.80
2023-03-03T05:23:01.572Z,8.50
2023-03-03T05:25:29.702Z,8.53
2023-03-03T05:27:57.826Z,9.10
2023-03-03T05:30:25.953Z,9.47
2023-03-03T05:32:55.390Z,8.73
2023-03-03T05:35:23.584Z,8.37
2023-03-03T05:37:52.764Z,9.93
2023-03-03T05:40:20.924Z,9.73
2023-03-03T05:42:49.126Z,9.60
2023-03-03T05:45:20.371Z,10.30
2023-03-03T05:47:48.918Z,8.20
2023-03-03T05:50:18.844Z,8.23
2023-03-03T05:52:49.590Z,9.00
2023-03-03T05:55:18.696Z,8.90
2023-03-03T05:57:47.137Z,10.90
2023-03-03T06:00:17.681Z,10.03
2023-03-03T06:02:45.817Z,11.03
2023-03-03T06:05:14.113Z,10.13
2023-03-03T06:07:43.780Z,10.23
2023-03-03T06:10:13.126Z,10.13
2023-03-03T06:12:42.151Z,10.60
2023-03-03T06:15:11.890Z,10.50
2023-03-03T06:17:40.398Z,10.83
2023-03-03T06:20:10.574Z,8.77
2023-03-03T06:22:38.736Z,10.67
2023-03-03T06:25:09.537Z,9.53
2023-03-03T06:27:37.962Z,8.93
2023-03-03T06:30:08.106Z,9.90
2023-03-03T06:32:36.384Z,10.43
2023-03-03T06:35:04.902Z,9.90
2023-03-03T06:37:33.005Z,10.53
2023-03-03T06:40:01.152Z,9.63
2023-03-03T06:42:30.613Z,9.67
2023-03-03T06:44:58.784Z,9.57
2023-03-03T06:47:27.140Z,10.47
2023-03-03T06:49:55.307Z,11.90
2023-03-03T06:52:27.731Z,12.60
2023-03-03T06:54:59.587Z,8.90
2023-03-03T06:57:31.604Z,9.53
2023-03-03T07:00:17.078Z,9.47
2023-03-03T07:02:45.254Z,10.03
2023-03-03T07:05:18.218Z,9.37
2023-03-03T07:07:46.553Z,9.73
2023-03-03T07:10:25.145Z,11.93
2023-03-03T07:12:55.464Z,11.03
2023-03-03T07:15:29.688Z,10.70
2023-03-03T07:17:59.670Z,10.77
2023-03-03T07:20:39.133Z,10.43
2023-03-03T07:23:22.284Z,11.50
2023-03-03T07:25:50.501Z,10.10
2023-03-03T07:28:25.685Z,11.23
2023-03-03T07:30:55.610Z,10.13
2023-03-03T07:33:29.462Z,10.70
2023-03-03T07:36:00.350Z,10.00
2023-03-03T07:38:38.810Z,8.03
2023-03-03T07:41:15.610Z,9.20
2023-03-03T07:43:54.480Z,10.33
2023-03-03T07:46:31.981Z,9.67
2023-03-03T07:49:01.520Z,8.97
2023-03-03T07:51:39.565Z,8.73
2023-03-03T07:54:31.083Z,9.43
2023-03-03T07:57:09.036Z,10.20
2023-03-03T07:59:42.786Z,11.13
2023-03-03T08:02:38.792Z,10.60
2023-03-03T08:05:37.137Z,11.47
2023-03-03T08:08:29.348Z,11.93
2023-03-03T08:11:00.161Z,9.97
2023-03-03T08:13:38.028Z,10.00
2023-03-03T08:16:37.019Z,10.20
2023-03-03T08:19:07.986Z,8.90
2023-03-03T08:21:37.641Z,9.47
2023-03-03T08:24:06.656Z,7.93
2023-03-03T08:26:34.771Z,9.40
2023-03-03T08:29:03.229Z,10.90
2023-03-03T08:31:41.316Z,10.20
2023-03-03T08:34:10.294Z,11.63
2023-03-03T08:36:38.451Z,12.47
2023-03-03T08:39:07.185Z,12.10
2023-03-03T08:41:35.321Z,11.83
2023-03-03T08:44:03.448Z,12.27
2023-03-03T08:46:33.398Z,13.60
2023-03-03T08:49:01.545Z,11.10
2023-03-03T08:51:29.717Z,12.07
2023-03-03T08:53:57.935Z,9.83
2023-03-03T08:56:26.097Z,10.53
2023-03-03T08:59:02.070Z,10.47
2023-03-03T09:01:32.951Z,10.20
2023-03-03T09:04:01.369Z,10.53
2023-03-03T09:06:29.599Z,9.60
2023-03-03T09:08:57.857Z,11.23
2023-03-03T09:11:29.929Z,11.63
2023-03-03T09:14:11.010Z,13.30
2023-03-03T09:16:48.327Z,12.17
2023-03-03T09:19:29.482Z,12.17
2023-03-03T09:22:03.946Z,13.37
2023-03-03T09:24:37.157Z,12.97
2023-03-03T09:27:23.195Z,12.30
2023-03-03T09:29:51.403Z,11.60
2023-03-03T09:32:35.267Z,12.20
2023-03-03T09:35:38.564Z,11.13
2023-03-03T09:38:26.328Z,12.80
2023-03-03T09:41:37.779Z,10.90
2023-03-03T09:44:39.039Z,13.27
2023-03-03T09:47:28.891Z,9.90
2023-03-03T09:50:12.873Z,12.43
2023-03-03T09:52:53.691Z,10.03
2023-03-03T09:55:38.705Z,8.67
2023-03-03T09:58:32.740Z,9.30
2023-03-03T10:01:33.866Z,10.70
2023-03-03T10:04:24.094Z,10.43
2023-03-03T10:07:13.692Z,12.07
2023-03-03T10:10:04.333Z,11.80
2023-03-03T10:12:47.601Z,10.67
2023-03-03T10:15:39.335Z,11.63
2023-03-03T10:18:24.384Z,11.17
2023-03-03T10:21:09.756Z,12.47
2023-03-03T10:23:57.626Z,13.37
2023-03-03T10:27:09.881Z,12.97
2023-03-03T10:29:49.456Z,14.63
2023-03-03T10:32:51.773Z,12.53
2023-03-03T10:36:06.714Z,15.27
2023-03-03T10:38:57.896Z,16.30
2023-03-03T10:41:49.896Z,13.50
2023-03-03T10:45:02.249Z,12.30
2023-03-03T10:47:51.573Z,14.27
2023-03-03T10:50:31.705Z,13.87
2023-03-03T10:53:22.111Z,14.27
2023-03-03T10:56:19.238Z,10.97
2023-03-03T10:59:02.947Z,11.43
2023-03-03T11:01:46.261Z,13.27
2023-03-03T11:04:51.630Z,14.03
2023-03-03T11:07:30.094Z,15.20
2023-03-03T11:10:19.710Z,14.20
2023-03-03T11:13:03.266Z,15.93
2023-03-03T11:15:45.858Z,19.63
2023-03-03T11:18:36.382Z,18.77
2023-03-03T11:21:16.944Z,19.50
2023-03-03T11:24:03.095Z,16.53
2023-03-03T11:26:57.681Z,15.60
2023-03-03T11:29:49.586Z,18.67
2023-03-03T11:32:29.831Z,15.73
2023-03-03T11:35:20.560Z,16.83
2023-03-03T11:38:08.830Z,14.20
2023-03-03T11:40:49.948Z,15.37
2023-03-03T11:43:36.737Z,14.00
2023-03-03T11:46:12.768Z,13.73
2023-03-03T11:48:54.978Z,14.83
2023-03-03T11:51:41.642Z,14.67
2023-03-03T11:54:19.508Z,14.23
2023-03-03T11:56:49.782Z,13.93
2023-03-03T11:59:52.114Z,13.37
2023-03-03T12:03:14.145Z,13.27
2023-03-03T12:05:57.946Z,14.07
2023-03-03T12:08:45.730Z,12.13
2023-03-03T12:11:23.782Z,13.63
2023-03-03T12:14:02.955Z,11.53
2023-03-03T12:16:48.619Z,11.90
2023-03-03T12:19:37.274Z,12.50
2023-03-03T12:22:33.488Z,10.53
2023-03-03T12:25:34.926Z,12.40
2023-03-03T12:28:12.893Z,10.40
2023-03-03T12:31:11.040Z,11.77
2023-03-03T12:33:54.042Z,13.17
2023-03-03T12:36:40.710Z,12.30
2023-03-03T12:39:33.722Z,14.93
2023-03-03T12:42:13.171Z,13.03
2023-03-03T12:44:50.149Z,11.50
2023-03-03T12:47:28.806Z,13.00
2023-03-03T12:50:25.352Z,15.40
2023-03-03T12:53:10.870Z,15.13
2023-03-03T12:55:53.742Z,16.83
2023-03-03T12:58:38.366Z,17.73
2023-03-03T13:01:28.466Z,16.03
2023-03-03T13:04:09.576Z,16.50
2023-03-03T13:06:48.643Z,18.20
2023-03-03T13:09:32.900Z,17.47
2023-03-03T13:12:29.148Z,19.13
2023-03-03T13:15:04.390Z,16.57
2023-03-03T13:17:43.837Z,17.53
2023-03-03T13:20:27.399Z,20.30
2023-03-03T13:23:08.381Z,22.20
2023-03-03T13:25:54.175Z,20.50
2023-03-03T13:28:36.873Z,21.17
2023-03-03T13:31:13.047Z,18.40
2023-03-03T13:33:48.867Z,18.13
2023-03-03T13:36:19.729Z,21.13
2023-03-03T13:38:54.567Z,20.13
2023-03-03T13:41:32.142Z,20.87
2023-03-03T13:44:10.307Z,19.53
2023-03-03T13:46:48.283Z,19.43
2023-03-03T13:49:42.441Z,20.17
2023-03-03T13:52:13.412Z,21.23
2023-03-03T13:55:10.857Z,17.00
2023-03-03T13:57:58.623Z,17.20
2023-03-03T14:00:47.806Z,16.47
2023-03-03T14:03:50.782Z,16.27
2023-03-03T14:06:22.878Z,18.47
2023-03-03T14:09:23.443Z,17.10
2023-03-03T14:12:04.977Z,17.17
2023-03-03T14:14:48.848Z,17.00
2023-03-03T14:17:30.562Z,19.40
2023-03-03T14:20:19.991Z,16.57
2023-03-03T14:22:55.634Z,14.87
2023-03-03T14:25:24.593Z,18.23
2023-03-03T14:28:06.150Z,17.67
2023-03-03T14:30:40.566Z,17.63
2023-03-03T14:33:26.129Z,17.53
2023-03-03T14:36:11.763Z,19.33
2023-03-03T14:38:51.632Z,16.37
2023-03-03T14:41:37.594Z,16.60
2023-03-03T14:44:27.667Z,18.17
2023-03-03T14:47:24.234Z,16.23
2023-03-03T14:49:54.614Z,16.93
2023-03-03T14:52:27.031Z,16.37
2023-03-03T14:54:58.173Z,15.93
2023-03-03T14:57:46.457Z,16.30
2023-03-03T15:00:36.513Z,13.13
2023-03-03T15:03:23.286Z,13.20
2023-03-03T15:05:53.191Z,12.13
2023-03-03T15:08:33.304Z,15.93
2023-03-03T15:11:20.458Z,15.27
2023-03-03T15:13:48.664Z,12.57
2023-03-03T15:16:22.682Z,15.83
2023-03-03T15:19:38.875Z,15.17
2023-03-03T15:22:20.939Z,13.57
2023-03-03T15:25:03.312Z,12.40
2023-03-03T15:27:40.628Z,15.80
2023-03-03T15:30:24.644Z,16.57
2023-03-03T15:33:01.111Z,14.97
2023-03-03T15:35:53.792Z,15.83
2023-03-03T15:38:35.881Z,13.60
2023-03-03T15:41:20.297Z,14.07
2023-03-03T15:44:04.094Z,15.03
2023-03-03T15:46:50.052Z,12.23
2023-03-03T15:49:46.988Z,12.50
2023-03-03T15:52:39.405Z,12.77
2023-03-03T15:55:38.334Z,14.27
2023-03-03T15:58:33.167Z,13.00
2023-03-03T16:01:16.125Z,13.40
2023-03-03T16:03:50.694Z,13.10
2023-03-03T16:06:34.508Z,11.90
2023-03-03T16:09:20.926Z,14.40
2023-03-03T16:12:01.061Z,13.57
2023-03-03T16:15:06.264Z,12.37
2023-03-03T16:17:47.747Z,11.80
2023-03-03T16:20:24.266Z,13.60
2023-03-03T16:23:18.739Z,12.33
2023-03-03T16:26:05.753Z,11.33
2023-03-03T16:28:53.348Z,11.57
2023-03-03T16:31:30.209Z,11.97
2023-03-03T16:34:12.900Z,11.03
2023-03-03T16:37:01.450Z,12.07
2023-03-03T16:39:52.258Z,13.17
2023-03-03T16:42:30.235Z,11.20
2023-03-03T16:45:22.725Z,10.83
2023-03-03T16:48:21.974Z,10.57
2023-03-03T16:51:05.446Z,12.63
2023-03-03T16:53:55.219Z,13.20
2023-03-03T16:56:29.657Z,11.27
2023-03-03T16:59:25.696Z,9.93
2023-03-03T17:02:19.272Z,10.77
2023-03-03T17:04:58.742Z,10.77
2023-03-03T17:07:44.536Z,11.57
2023-03-03T17:10:28.254Z,10.07
2023-03-03T17:13:39.877Z,11.50
2023-03-03T17:16:23.455Z,12.07
2023-03-03T17:19:07.197Z,12.97
2023-03-03T17:21:57.156Z,11.00
2023-03-03T17:24:40.533Z,12.23
2023-03-03T17:27:26.817Z,13.90
2023-03-03T17:30:12.307Z,11.17
2023-03-03T17:33:01.911Z,12.47
2023-03-03T17:35:57.508Z,14.13
2023-03-03T17:38:43.473Z,13.17
2023-03-03T17:41:21.177Z,12.70
2023-03-03T17:44:03.096Z,21.77
2023-03-03T17:46:42.038Z,14.60
2023-03-03T17:50:01.474Z,15.10
2023-03-03T17:53:09.567Z,16.37
2023-03-03T17:55:57.380Z,14.97
2023-03-03T17:59:08.166Z,14.70
2023-03-03T18:02:25.650Z,17.37
2023-03-03T18:05:22.334Z,14.17
2023-03-03T18:08:22.096Z,16.03
2023-03-03T18:11:29.635Z,17.10
2023-03-03T18:14:34.247Z,17.17
2023-03-03T18:17:45.563Z,17.47
2023-03-03T18:20:45.314Z,21.30
2023-03-03T18:23:49.742Z,18.53
2023-03-03T18:26:42.008Z,19.73
2023-03-03T18:29:29.516Z,24.27
2023-03-03T18:32:20.403Z,22.80
2023-03-03T18:34:48.546Z,22.03
2023-03-03T18:37:43.765Z,24.37
2023-03-03T18:40:36.351Z,22.87
2023-03-03T18:43:55.702Z,22.87
2023-03-03T18:46:51.243Z,23.17
2023-03-03T18:49:40.130Z,22.47
2023-03-03T18:52:23.630Z,22.23
2023-03-03T18:55:25.836Z,20.47
2023-03-03T18:58:34.234Z,19.30
2023-03-03T19:01:41.540Z,18.37
2023-03-03T19:04:24.100Z,20.20
2023-03-03T19:07:27.579Z,16.77
2023-03-03T19:10:01.550Z,17.77
2023-03-03T19:12:53.591Z,14.73
2023-03-03T19:16:01.026Z,15.90
2023-03-03T19:18:30.430Z,13.53
2023-03-03T19:21:01.740Z,14.77
2023-03-03T19:23:54.259Z,14.47
2023-03-03T19:26:55.207Z,14.83
2023-03-03T19:29:58.758Z,15.50
2023-03-03T19:33:03.154Z,14.97
2023-03-03T19:35:46.071Z,13.93
2023-03-03T19:38:33.161Z,13.17
2023-03-03T19:41:18.109Z,13.57
2023-03-03T19:43:57.710Z,12.83
2023-03-03T19:46:56.216Z,14.23
2023-03-03T19:49:44.848Z,11.33
2023-03-03T19:52:28.648Z,10.70
2023-03-03T19:55:23.012Z,11.13
2023-03-03T19:58:06.134Z,9.80
2023-03-03T20:00:43.137Z,10.17
2023-03-03T20:04:08.265Z,9.30
2023-03-03T20:06:55.043Z,9.03
2023-03-03T20:09:38.467Z,10.47
2023-03-03T20:12:26.427Z,8.90
2023-03-03T20:15:09.604Z,8.33
2023-03-03T20:17:54.395Z,7.67
2023-03-03T20:20:52.450Z,10.43
2023-03-03T20:23:32.095Z,9.17
2023-03-03T20:26:10.250Z,9.67
2023-03-03T20:29:17.745Z,8.93
2023-03-03T20:31:56.042Z,9.93
2023-03-03T20:34:43.993Z,9.13
2023-03-03T20:37:23.055Z,10.93
2023-03-03T20:40:06.955Z,7.87
2023-03-03T20:42:53.018Z,8.97
2023-03-03T20:45:39.867Z,8.20
2023-03-03T20:48:27.173Z,8.23
2023-03-03T20:51:05.755Z,9.57
2023-03-03T20:53:52.138Z,8.17
2023-03-03T20:56:29.689Z,10.23
2023-03-03T20:59:19.411Z,8.13
2023-03-03T21:02:00.806Z,9.47
2023-03-03T21:04:31.353Z,8.97
2023-03-03T21:07:02.399Z,9.37
2023-03-03T21:09:34.101Z,10.73
2023-03-03T21:12:10.648Z,10.60
2023-03-03T21:14:39.389Z,10.27
2023-03-03T21:17:27.956Z,9.87
2023-03-03T21:19:56.092Z,8.00
2023-03-03T21:22:25.474Z,8.00
2023-03-03T21:24:58.820Z,9.00
2023-03-03T21:27:30.270Z,8.43
2023-03-03T21:30:09.961Z,8.47
2023-03-03T21:32:42.334Z,8.00
2023-03-03T21:35:13.309Z,8.87
2023-03-03T21:37:49.190Z,9.57
2023-03-03T21:40:24.391Z,8.53
2023-03-03T21:42:54.414Z,9.27
2023-03-03T21:45:23.676Z,9.90
2023-03-03T21:47:53.475Z,8.37
2023-03-03T21:50:22.526Z,9.00
2023-03-03T21:52:50.719Z,8.90
2023-03-03T21:55:20.294Z,9.50
2023-03-03T21:57:48.290Z,11.23
2023-03-03T22:00:17.460Z,11.60
2023-03-03T22:02:45.527Z,11.77
2023-03-03T22:08:09.986Z,11.53
2023-03-03T22:10:40.067Z,13.00
2023-03-03T22:13:08.214Z,12.13
2023-03-03T22:15:36.437Z,12.80
2023-03-03T22:18:04.760Z,12.40
2023-03-03T22:20:32.944Z,14.37
2023-03-03T22:23:01.204Z,15.27
2023-03-03T22:25:29.375Z,14.53
2023-03-03T22:27:58.992Z,16.13
2023-03-03T22:30:27.119Z,18.00
2023-03-03T22:32:55.312Z,17.17
2023-03-03T22:35:23.734Z,18.63
2023-03-03T22:37:52.484Z,17.90
2023-03-03T22:40:20.954Z,18.43
2023-03-03T22:42:49.229Z,17.77
2023-03-03T22:45:18.911Z,16.83
2023-03-03T22:47:47.097Z,18.33
2023-03-03T22:50:15.360Z,18.47
2023-03-03T22:52:43.565Z,19.30
2023-03-03T22:55:12.340Z,18.27
2023-03-03T22:57:40.492Z,20.20
2023-03-03T23:00:13.141Z,21.47
2023-03-03T23:02:43.243Z,19.07
2023-03-03T23:05:11.766Z,18.53
2023-03-03T23:07:41.886Z,20.90
2023-03-03T23:10:11.948Z,18.53
2023-03-03T23:12:40.178Z,17.47
2023-03-03T23:15:13.333Z,15.60
2023-03-03T23:17:44.855Z,17.57
2023-03-03T23:20:16.284Z,14.53
2023-03-03T23:22:44.640Z,13.70
2023-03-03T23:25:14.834Z,14.10
2023-03-03T23:27:43.944Z,12.70
2023-03-03T23:30:16.524Z,14.20
2023-03-03T23:32:48.136Z,12.10
2023-03-03T23:35:16.683Z,11.00
2023-03-03T23:37:44.943Z,11.40
2023-03-03T23:40:15.642Z,11.33
2023-03-03T23:42:43.884Z,13.10
2023-03-03T23:45:13.440Z,11.67
2023-03-03T23:47:42.194Z,11.73
2023-03-03T23:50:14.457Z,11.30
2023-03-03T23:52:42.659Z,11.80
2023-03-03T23:55:11.845Z,11.73
2023-03-03T23:57:40.095Z,10.90
